Terminal Aerodrome Forecast
Issued by NWS Albany, NY

Home | Current Version | Previous Version | Text Only | Print | Product List | Glossary On
Versions: 1 2 3 4 5 6 7 8 9 10 11 12 13 14 15 16 17 18 19 20 21 22
442
FTUS41 KALY 112333
TAFGFL
TAF
KGFL 112333Z 1200/1224 25008KT P6SM BKN250
     FM120300 VRB03KT P6SM SCT025 BKN050 OVC100
     FM120600 08004KT 4SM -SN OVC040
     FM120900 13004KT 1SM -SN OVC025
     FM121700 16004KT 2SM -RASN OVC015
     FM122200 25009KT 3SM -RASN OVC020=

USA.gov is the U.S. government's official web portal to all federal, state and local government web resources and services.